Time;durP1;ratioP1;P1;durP2;ratioP2;P2;SDS_P1;SDS_P2;PMS_P1;PMS_P2;Temp;Humidity;BMP_temperature;BMP_pressure;BME280_temperature;BME280_humidity;BME280_pressure;Samples;Min_cycle;Max_cycle;Signal;HPM_P1;HPM_P2
2022/12/27 00:03:10;;;;;;;0.30;0.22;;;;;;;3.06;100.00;102126.44;10446504;28;20563;-82
2022/12/27 00:08:15;;;;;;;0.10;0.10;;;;;;;3.08;100.00;102124.91;10454761;28;20427;-83
2022/12/27 00:13:17;;;;;;;0.05;0.05;;;;;;;3.07;100.00;102130.75;10470347;28;20561;-83
2022/12/27 00:18:18;;;;;;;0.00;0.00;;;;;;;2.84;100.00;102137.53;10470834;28;20060;-82
2022/12/27 00:23:20;;;;;;;0.00;0.00;;;;;;;2.69;100.00;102149.94;10483549;28;20484;-82
2022/12/27 00:28:22;;;;;;;0.00;0.00;;;;;;;2.79;100.00;102148.97;10493601;28;20036;-81
2022/12/27 00:33:25;;;;;;;1.58;0.55;;;;;;;2.66;100.00;102147.16;10500025;28;20151;-81
2022/12/27 00:38:26;;;;;;;0.52;0.32;;;;;;;2.69;100.00;102160.09;10475418;28;20072;-82
2022/12/27 00:43:28;;;;;;;0.03;0.03;;;;;;;2.74;100.00;102164.69;10472422;28;20060;-83
2022/12/27 00:48:30;;;;;;;0.22;0.22;;;;;;;2.83;100.00;102165.41;10452062;28;20060;-82
2022/12/27 00:53:33;;;;;;;0.10;0.10;;;;;;;2.78;100.00;102177.78;10443211;28;20077;-83
2022/12/27 00:58:36;;;;;;;0.00;0.00;;;;;;;3.04;100.00;102178.88;10466987;28;20048;-82
2022/12/27 01:03:41;;;;;;;0.00;0.00;;;;;;;3.05;100.00;102185.75;10458108;28;20044;-83
2022/12/27 01:08:44;;;;;;;1.30;1.20;;;;;;;3.24;100.00;102184.66;10462717;28;20484;-83
2022/12/27 01:13:46;;;;;;;2.40;0.43;;;;;;;3.08;100.00;102188.56;10440382;28;20044;-83
2022/12/27 01:18:48;;;;;;;0.13;0.13;;;;;;;3.31;100.00;102202.16;10448154;28;20045;-82
2022/12/27 01:23:50;;;;;;;0.13;0.13;;;;;;;3.61;100.00;102192.53;10480037;28;20082;-82
2022/12/27 01:28:53;;;;;;;0.00;0.00;;;;;;;3.58;100.00;102195.69;10467334;28;20049;-82
2022/12/27 01:33:57;;;;;;;0.00;0.00;;;;;;;3.90;100.00;102198.91;10470208;28;20051;-81
2022/12/27 01:38:59;;;;;;;0.52;0.22;;;;;;;3.77;100.00;102208.16;10452860;28;20052;-81
2022/12/27 01:44:42;;;;;;;0.35;0.32;;;;;;;3.78;100.00;102215.03;10454724;28;20049;-80
2022/12/27 01:50:12;;;;;;;0.25;0.22;;;;;;;3.73;100.00;102212.91;10454784;28;20449;-80
2022/12/27 01:55:20;;;;;;;0.08;0.08;;;;;;;3.72;100.00;102214.59;10467207;28;20049;-81
2022/12/27 02:00:22;;;;;;;0.15;0.15;;;;;;;3.80;100.00;102221.16;10447557;28;20044;-81
2022/12/27 02:05:25;;;;;;;0.85;0.25;;;;;;;3.60;100.00;102224.75;10464020;28;20048;-82
2022/12/27 02:10:27;;;;;;;0.08;0.08;;;;;;;3.68;100.00;102224.44;10498442;28;20075;-81
2022/12/27 02:15:29;;;;;;;0.38;0.28;;;;;;;3.76;100.00;102233.53;10512439;28;20051;-81
2022/12/27 02:20:42;;;;;;;3.10;1.08;;;;;;;3.83;100.00;102257.84;10480472;28;20048;-83
2022/12/27 02:26:09;;;;;;;0.50;0.50;;;;;;;3.86;100.00;102273.38;10487589;28;20428;-82
2022/12/27 02:31:16;;;;;;;0.13;0.10;;;;;;;3.72;100.00;102270.66;10488597;28;20547;-82
2022/12/27 02:36:24;;;;;;;0.13;0.13;;;;;;;3.40;100.00;102271.63;10488118;28;20044;-82
2022/12/27 02:58:08;;;;;;;0.22;0.13;;;;;;;3.58;100.00;102306.97;10474008;28;20041;-83
2022/12/27 03:03:29;;;;;;;0.47;0.40;;;;;;;3.62;100.00;102316.59;10486474;28;20094;-84
2022/12/27 03:08:44;;;;;;;0.20;0.20;;;;;;;3.68;100.00;102317.09;10461748;28;20048;-83
2022/12/27 03:35:29;;;;;;;0.10;0.10;;;;;;;3.73;100.00;102343.81;10526700;28;20048;-81
2022/12/27 03:46:34;;;;;;;0.05;0.05;;;;;;;3.72;100.00;102339.50;10527062;28;20518;-83
2022/12/27 03:51:41;;;;;;;0.13;0.10;;;;;;;3.62;100.00;102329.34;10526814;28;20044;-83
2022/12/27 03:56:43;;;;;;;0.22;0.22;;;;;;;3.63;100.00;102326.03;10526861;28;20134;-81
2022/12/27 04:01:45;;;;;;;0.50;0.22;;;;;;;3.50;100.00;102324.19;10528382;28;20097;-83
2022/12/27 04:06:47;;;;;;;0.00;0.00;;;;;;;3.54;100.00;102331.31;10566011;28;20044;-84
2022/12/27 04:38:30;;;;;;;0.20;0.20;;;;;;;3.40;100.00;102353.16;10483623;28;20040;-82
2022/12/27 05:05:03;;;;;;;0.60;0.50;;;;;;;3.48;100.00;102357.19;10481955;28;20538;-83
2022/12/27 05:15:25;;;;;;;;;;;;;;;3.43;100.00;102389.09;10482380;28;20067;-83
2022/12/27 05:20:27;;;;;;;0.00;0.00;;;;;;;3.45;100.00;102391.75;10500073;28;19920;-83
2022/12/27 05:25:35;;;;;;;1.08;0.75;;;;;;;3.41;100.00;102397.38;10481352;28;20064;-82
2022/12/27 05:30:40;;;;;;;0.20;0.20;;;;;;;3.37;100.00;102403.91;10498124;28;20047;-81
2022/12/27 05:35:42;;;;;;;0.20;0.03;;;;;;;3.44;100.00;102402.69;10481004;28;20114;-81
2022/12/27 05:40:43;;;;;;;0.10;0.10;;;;;;;3.39;100.00;102411.66;10481514;28;20494;-81
2022/12/27 05:45:45;;;;;;;0.17;0.10;;;;;;;3.38;100.00;102410.78;10480970;28;20049;-83
2022/12/27 05:50:47;;;;;;;0.30;0.30;;;;;;;3.39;100.00;102414.19;10480959;28;20049;-81
2022/12/27 05:55:56;;;;;;;0.00;0.00;;;;;;;3.28;100.00;102433.72;10526763;28;20024;-82
2022/12/27 06:00:58;;;;;;;1.77;0.88;;;;;;;3.27;100.00;102425.22;10506989;28;20507;-83
2022/12/27 06:06:02;;;;;;;0.10;0.10;;;;;;;3.32;100.00;102434.09;10480839;28;20051;-82
2022/12/27 06:11:09;;;;;;;0.70;0.32;;;;;;;3.45;100.00;102427.41;10480403;28;20060;-83
2022/12/27 06:16:11;;;;;;;0.40;0.25;;;;;;;3.35;100.00;102436.00;10474166;28;20052;-82
2022/12/27 06:21:16;;;;;;;0.63;0.45;;;;;;;3.39;100.00;102447.31;10453449;28;20052;-83
2022/12/27 06:26:24;;;;;;;1.45;0.40;;;;;;;3.18;100.00;102442.28;10464639;28;20075;-84
2022/12/27 06:31:26;;;;;;;0.85;0.57;;;;;;;3.11;100.00;102455.28;10475095;28;20041;-84
2022/12/27 06:36:31;;;;;;;0.00;0.00;;;;;;;3.13;100.00;102454.66;10456797;28;20122;-83
2022/12/27 06:41:33;;;;;;;0.30;0.30;;;;;;;3.00;100.00;102454.41;10448097;28;20060;-84
2022/12/27 06:46:35;;;;;;;0.30;0.30;;;;;;;2.94;100.00;102471.75;10467757;28;20040;-86
2022/12/27 06:51:36;;;;;;;0.00;0.00;;;;;;;2.90;100.00;102474.78;10468495;28;20040;-84
2022/12/27 06:56:38;;;;;;;0.00;0.00;;;;;;;2.93;100.00;102485.22;10463631;28;20059;-85
2022/12/27 07:01:45;;;;;;;0.10;0.00;;;;;;;2.87;100.00;102485.59;10490251;28;20063;-85
2022/12/27 07:06:47;;;;;;;0.10;0.10;;;;;;;2.82;100.00;102486.91;10463304;28;20480;-85
2022/12/27 07:11:49;;;;;;;0.00;0.00;;;;;;;2.99;100.00;102506.09;10464488;28;20057;-85
2022/12/27 07:16:51;;;;;;;0.85;0.45;;;;;;;2.97;100.00;102507.63;10485521;28;20036;-84
2022/12/27 07:21:52;;;;;;;0.20;0.20;;;;;;;3.17;100.00;102502.50;10480404;28;20076;-84
2022/12/27 07:26:54;;;;;;;0.17;0.17;;;;;;;3.16;100.00;102516.00;10461111;28;20378;-83
2022/12/27 07:31:55;;;;;;;0.22;0.22;;;;;;;3.17;100.00;102527.97;10451587;28;20084;-84
2022/12/27 07:36:57;;;;;;;0.00;0.00;;;;;;;3.23;100.00;102531.81;10469622;28;20047;-84
2022/12/27 07:41:59;;;;;;;0.40;0.40;;;;;;;3.19;100.00;102525.56;10458198;28;20097;-85
2022/12/27 07:47:11;;;;;;;0.57;0.57;;;;;;;3.21;100.00;102534.22;10492946;28;20056;-85
2022/12/27 07:52:12;;;;;;;4.68;1.45;;;;;;;3.22;100.00;102538.53;10504225;28;20068;-84
2022/12/27 07:57:14;;;;;;;0.10;0.10;;;;;;;3.23;100.00;102547.97;10486350;28;20076;-84
2022/12/27 08:02:15;;;;;;;0.75;0.40;;;;;;;3.24;100.00;102547.22;10461596;28;20084;-84
2022/12/27 08:07:18;;;;;;;0.85;0.30;;;;;;;3.22;100.00;102556.38;10445290;28;20041;-85
2022/12/27 08:12:20;;;;;;;0.22;0.22;;;;;;;3.15;100.00;102557.53;10463326;28;20052;-85
2022/12/27 08:17:26;;;;;;;0.25;0.15;;;;;;;3.29;100.00;102562.88;10483193;28;20048;-87
2022/12/27 08:22:28;;;;;;;0.28;0.10;;;;;;;3.37;100.00;102576.22;10485245;28;20140;-85
2022/12/27 08:27:29;;;;;;;0.52;0.47;;;;;;;3.33;100.00;102564.91;10464021;28;20036;-87
2022/12/27 08:32:31;;;;;;;0.00;0.00;;;;;;;3.40;100.00;102559.53;10480524;28;20044;-85
2022/12/27 08:37:33;;;;;;;1.70;1.35;;;;;;;3.56;100.00;102554.06;10486694;28;20131;-85
2022/12/27 08:42:34;;;;;;;0.28;0.28;;;;;;;3.61;100.00;102562.06;10467832;28;20044;-84
2022/12/27 08:47:37;;;;;;;0.30;0.30;;;;;;;3.67;100.00;102562.56;10468129;28;20041;-85
2022/12/27 08:52:39;;;;;;;1.05;0.52;;;;;;;3.77;100.00;102582.03;10459716;28;20079;-84
2022/12/27 08:57:40;;;;;;;1.35;1.15;;;;;;;3.85;100.00;102582.63;10476995;28;20139;-83
2022/12/27 09:02:42;;;;;;;0.00;0.00;;;;;;;4.04;100.00;102579.91;10479136;28;20052;-85
2022/12/27 09:07:46;;;;;;;0.00;0.00;;;;;;;4.09;100.00;102579.50;10477226;28;20249;-84
2022/12/27 09:12:48;;;;;;;0.20;0.20;;;;;;;4.09;100.00;102584.59;10473439;28;20079;-85
2022/12/27 09:17:50;;;;;;;0.28;0.15;;;;;;;4.12;100.00;102577.22;10493228;28;20105;-87
2022/12/27 09:22:51;;;;;;;1.45;0.60;;;;;;;4.18;100.00;102583.56;10477194;28;20067;-85
2022/12/27 09:27:54;;;;;;;0.20;0.20;;;;;;;4.16;100.00;102572.31;10459476;28;20127;-85
2022/12/27 09:32:56;;;;;;;0.20;0.20;;;;;;;4.42;100.00;102575.28;10474500;28;20052;-82
2022/12/27 09:37:58;;;;;;;1.25;0.85;;;;;;;4.44;100.00;102589.03;10464203;28;20491;-82
2022/12/27 09:43:13;;;;;;;1.52;0.60;;;;;;;4.49;100.00;102593.63;10481371;28;20040;-82
2022/12/27 09:48:34;;;;;;;0.32;0.10;;;;;;;4.52;100.00;102601.50;10530591;28;20032;-82
2022/12/27 09:53:48;;;;;;;1.65;1.23;;;;;;;4.80;100.00;102604.53;10524357;28;20496;-84
2022/12/27 09:58:52;;;;;;;0.40;0.40;;;;;;;4.80;100.00;102609.63;10465452;28;20045;-84
2022/12/27 10:03:53;;;;;;;1.98;0.40;;;;;;;4.85;100.00;102598.09;10491522;28;20048;-85
2022/12/27 10:09:08;;;;;;;2.03;0.88;;;;;;;5.17;100.00;102601.34;10476733;28;20696;-84
2022/12/27 10:14:50;;;;;;;0.88;0.63;;;;;;;4.87;100.00;102594.00;10459737;28;20041;-82
2022/12/27 10:20:15;;;;;;;0.00;0.00;;;;;;;4.82;100.00;102596.97;10486807;28;20392;-81
2022/12/27 10:25:21;;;;;;;0.22;0.00;;;;;;;4.86;100.00;102599.00;10453734;28;20049;-81
2022/12/27 10:30:23;;;;;;;2.50;1.05;;;;;;;4.95;100.00;102599.72;10483545;28;20044;-83
2022/12/27 10:35:27;;;;;;;0.03;0.03;;;;;;;5.05;100.00;102596.19;10484282;28;20415;-83
2022/12/27 10:40:48;;;;;;;0.30;0.30;;;;;;;5.20;100.00;102591.34;10481225;28;20106;-81
2022/12/27 10:45:49;;;;;;;;;;;;;;;5.26;100.00;102586.69;10488515;28;20074;-82
2022/12/27 10:50:56;;;;;;;0.25;0.25;;;;;;;5.65;100.00;102577.63;10489980;28;20371;-83
2022/12/27 10:56:26;;;;;;;0.38;0.15;;;;;;;5.88;100.00;102565.63;10494963;28;20055;-86
2022/12/27 11:01:29;;;;;;;0.47;0.35;;;;;;;6.59;100.00;102534.75;10486242;28;20181;-84
2022/12/27 11:06:31;;;;;;;1.30;1.08;;;;;;;6.70;100.00;102516.66;10497501;28;20051;-84
2022/12/27 11:11:33;;;;;;;1.25;0.80;;;;;;;6.95;100.00;102514.97;10487442;28;20040;-84
2022/12/27 11:16:36;;;;;;;0.70;0.47;;;;;;;6.76;100.00;102501.72;10484969;28;20109;-84
2022/12/27 11:21:39;;;;;;;0.95;0.50;;;;;;;7.37;100.00;102504.84;10494115;28;20763;-84
2022/12/27 11:26:50;;;;;;;0.13;0.13;;;;;;;7.67;100.00;102504.19;10494939;28;20082;-83
2022/12/27 11:31:55;;;;;;;15.35;0.63;;;;;;;7.58;100.00;102484.84;10481591;28;20036;-82
2022/12/27 11:37:13;;;;;;;0.98;0.55;;;;;;;7.91;100.00;102489.44;10488983;28;20087;-84
2022/12/27 11:42:45;;;;;;;0.38;0.32;;;;;;;7.45;100.00;102482.28;10485359;28;20093;-84
2022/12/27 11:47:57;;;;;;;0.43;0.40;;;;;;;7.44;100.00;102472.81;10480790;28;20110;-83
2022/12/27 11:53:37;;;;;;;0.63;0.30;;;;;;;7.60;100.00;102466.97;10469481;28;20071;-84
2022/12/27 11:59:18;;;;;;;0.25;0.20;;;;;;;8.02;100.00;102451.59;10465977;28;20065;-84
2022/12/27 12:04:32;;;;;;;0.10;0.10;;;;;;;7.94;100.00;102446.88;10497277;28;20048;-83
2022/12/27 12:09:44;;;;;;;3.72;0.38;;;;;;;8.10;100.00;102432.41;10496910;28;20048;-84
2022/12/27 12:14:54;;;;;;;2.42;1.13;;;;;;;8.20;100.00;102426.16;10485020;28;20072;-82
2022/12/27 12:20:29;;;;;;;0.17;0.10;;;;;;;8.00;100.00;102428.41;10487686;28;20079;-84
2022/12/27 12:25:46;;;;;;;0.30;0.30;;;;;;;7.91;100.00;102431.31;10483632;28;20101;-83
2022/12/27 12:31:02;;;;;;;0.10;0.10;;;;;;;7.99;100.00;102433.47;10496406;28;20044;-84
2022/12/27 12:36:41;;;;;;;0.63;0.63;;;;;;;8.16;100.00;102419.94;10493201;28;20476;-84
2022/12/27 12:42:24;;;;;;;1.35;0.98;;;;;;;7.50;100.00;102423.59;10463128;28;20059;-85
2022/12/27 12:48:19;;;;;;;0.20;0.20;;;;;;;7.24;100.00;102431.41;10402544;28;20480;-83
2022/12/27 12:53:58;;;;;;;0.93;0.10;;;;;;;7.27;100.00;102430.72;10443899;28;20080;-84
2022/12/27 12:59:11;;;;;;;2.10;0.13;;;;;;;7.46;100.00;102422.53;10475051;28;20037;-84
2022/12/27 13:04:51;;;;;;;0.17;0.17;;;;;;;7.60;100.00;102406.31;10472733;28;20090;-82
2022/12/27 13:10:30;;;;;;;0.15;0.15;;;;;;;7.69;100.00;102389.72;10455554;28;20139;-83
2022/12/27 13:15:53;;;;;;;0.65;0.30;;;;;;;7.68;100.00;102388.81;10455717;28;20511;-82
2022/12/27 13:21:03;;;;;;;0.00;0.00;;;;;;;7.62;100.00;102375.63;10487937;28;20072;-84
2022/12/27 13:26:26;;;;;;;0.55;0.40;;;;;;;7.15;100.00;102384.69;10478853;28;20068;-84
2022/12/27 13:31:56;;;;;;;3.00;1.75;;;;;;;7.40;100.00;102381.13;10468300;28;20036;-84
2022/12/27 13:37:18;;;;;;;2.08;0.60;;;;;;;7.17;100.00;102375.41;10461842;28;20048;-86
2022/12/27 13:42:39;;;;;;;0.50;0.38;;;;;;;7.38;100.00;102375.00;10468496;28;20048;-84
2022/12/27 13:48:21;;;;;;;0.25;0.20;;;;;;;7.12;100.00;102364.88;10464989;28;20488;-84
2022/12/27 13:53:50;;;;;;;0.77;0.43;;;;;;;7.16;100.00;102350.56;10452980;28;20074;-84
2022/12/27 13:59:05;;;;;;;0.10;0.10;;;;;;;7.14;100.00;102341.91;10464530;28;20060;-84
2022/12/27 14:04:22;;;;;;;2.97;1.27;;;;;;;7.05;100.00;102333.63;10450722;28;20048;-84
2022/12/27 14:10:07;;;;;;;0.05;0.05;;;;;;;6.94;100.00;102331.28;10451286;28;20088;-84
2022/12/27 14:15:17;;;;;;;0.13;0.13;;;;;;;6.58;100.00;102325.56;10378709;28;20106;-84
2022/12/27 14:20:31;;;;;;;0.98;0.52;;;;;;;6.65;100.00;102344.75;10480340;28;20052;-83
2022/12/27 14:25:59;;;;;;;0.57;0.20;;;;;;;6.62;100.00;102340.31;10484805;28;20048;-84
2022/12/27 14:31:20;;;;;;;0.10;0.10;;;;;;;6.45;100.00;102346.00;10461549;28;20083;-83
2022/12/27 14:36:37;;;;;;;0.35;0.35;;;;;;;6.45;100.00;102340.88;10483488;28;20132;-80
2022/12/27 14:42:03;;;;;;;0.00;0.00;;;;;;;6.38;100.00;102343.81;10475258;28;20044;-82
2022/12/27 14:47:25;;;;;;;1.05;0.85;;;;;;;6.48;100.00;102343.66;10471046;28;20127;-81
2022/12/27 14:52:49;;;;;;;0.00;0.00;;;;;;;6.57;100.00;102351.97;10485332;28;20238;-82
2022/12/27 14:57:54;;;;;;;0.95;0.95;;;;;;;6.49;100.00;102345.44;10476803;28;20118;-83
2022/12/27 15:03:07;;;;;;;0.32;0.32;;;;;;;6.50;100.00;102344.66;10474808;28;20135;-81
2022/12/27 15:08:30;;;;;;;0.55;0.35;;;;;;;6.55;100.00;102343.28;10478151;28;20039;-81
2022/12/27 15:13:32;;;;;;;0.45;0.45;;;;;;;6.54;100.00;102336.38;10478386;28;20044;-82
2022/12/27 15:19:03;;;;;;;0.00;0.00;;;;;;;6.50;100.00;102345.53;10480106;28;20101;-81
2022/12/27 15:24:11;;;;;;;0.20;0.20;;;;;;;6.47;100.00;102337.66;10465928;28;20045;-81
2022/12/27 15:29:34;;;;;;;0.70;0.70;;;;;;;6.49;100.00;102337.75;10489972;28;20102;-80
2022/12/27 15:35:05;;;;;;;0.00;0.00;;;;;;;6.64;100.00;102343.88;10466831;28;20048;-81
2022/12/27 15:40:25;;;;;;;;;;;;;;;6.52;100.00;102343.06;10481546;28;20503;-79
2022/12/27 15:45:49;;;;;;;0.20;0.20;;;;;;;6.47;100.00;102339.31;10475894;28;20023;-81
2022/12/27 15:50:55;;;;;;;0.20;0.20;;;;;;;6.45;100.00;102330.66;10463351;28;20066;-83
2022/12/27 15:56:22;;;;;;;0.70;0.40;;;;;;;6.51;100.00;102336.19;10460073;28;20542;-84
2022/12/27 16:01:27;;;;;;;1.95;1.38;;;;;;;6.63;100.00;102331.88;10457690;28;20128;-85
2022/12/27 16:06:32;;;;;;;0.00;0.00;;;;;;;6.61;100.00;102328.31;10470849;28;20051;-84
2022/12/27 16:12:06;;;;;;;0.10;0.10;;;;;;;6.60;100.00;102312.84;10470894;28;20052;-85
2022/12/27 16:17:21;;;;;;;0.68;0.63;;;;;;;6.60;100.00;102318.84;10480283;28;20057;-82
2022/12/27 16:22:31;;;;;;;0.32;0.32;;;;;;;6.46;100.00;102311.94;10517339;28;20135;-83
2022/12/27 16:27:33;;;;;;;0.57;0.53;;;;;;;6.57;100.00;102310.06;10474433;28;20410;-83
2022/12/27 16:32:35;;;;;;;0.65;0.47;;;;;;;6.57;100.00;102310.97;10467222;28;20487;-84
2022/12/27 16:37:42;;;;;;;0.15;0.10;;;;;;;6.52;100.00;102317.47;10471599;28;20109;-83
2022/12/27 16:42:46;;;;;;;0.10;0.00;;;;;;;6.65;100.00;102306.34;10459357;28;20557;-83
2022/12/27 16:48:20;;;;;;;19.40;0.50;;;;;;;6.54;100.00;102310.78;10479921;28;20052;-84
2022/12/27 16:53:43;;;;;;;0.17;0.17;;;;;;;6.58;100.00;102301.63;10461042;28;20098;-82
2022/12/27 16:58:45;;;;;;;0.25;0.15;;;;;;;6.59;100.00;102295.72;10452081;28;20037;-81
2022/12/27 17:03:56;;;;;;;0.00;0.00;;;;;;;6.56;100.00;102290.38;10480226;28;20921;-82
2022/12/27 17:09:09;;;;;;;0.00;0.00;;;;;;;6.62;100.00;102289.09;10478746;28;20047;-82
2022/12/27 17:14:21;;;;;;;0.00;0.00;;;;;;;6.72;100.00;102289.72;10482332;28;20057;-82
2022/12/27 17:19:35;;;;;;;0.10;0.10;;;;;;;6.71;100.00;102276.00;10487974;28;20472;-82
2022/12/27 17:24:36;;;;;;;0.20;0.20;;;;;;;6.74;100.00;102268.53;10490714;28;20666;-82
2022/12/27 17:30:12;;;;;;;0.13;0.10;;;;;;;6.76;100.00;102260.94;10478816;28;20049;-82
2022/12/27 17:35:27;;;;;;;1.23;0.47;;;;;;;6.66;100.00;102242.41;10467306;28;20380;-82
2022/12/27 17:40:45;;;;;;;0.13;0.13;;;;;;;6.71;100.00;102236.72;10487433;28;20488;-82
2022/12/27 17:46:10;;;;;;;0.32;0.30;;;;;;;6.61;100.00;102230.13;10471089;28;20045;-81
2022/12/27 17:51:19;;;;;;;0.10;0.10;;;;;;;6.76;100.00;102219.94;10459615;28;20041;-81
2022/12/27 18:01:47;;;;;;;0.70;0.30;;;;;;;6.52;100.00;102189.44;10488091;28;20049;-81
2022/12/27 18:06:59;;;;;;;0.30;0.30;;;;;;;6.58;100.00;102184.72;10486798;28;20056;-82
2022/12/27 18:12:07;;;;;;;0.20;0.17;;;;;;;6.45;100.00;102188.19;10447567;28;20114;-81
2022/12/27 18:17:22;;;;;;;1.17;0.45;;;;;;;6.54;100.00;102182.75;10432016;28;20414;-81
2022/12/27 18:22:29;;;;;;;0.10;0.10;;;;;;;6.55;100.00;102174.28;10450904;28;20045;-81
2022/12/27 18:27:31;;;;;;;0.35;0.20;;;;;;;6.57;100.00;102162.47;10475448;28;20052;-81
2022/12/27 18:32:32;;;;;;;0.00;0.00;;;;;;;6.69;100.00;102153.75;10442049;28;20045;-81
2022/12/27 18:37:39;;;;;;;0.00;0.00;;;;;;;6.63;100.00;102152.59;10457792;28;20107;-81
2022/12/27 18:43:14;;;;;;;1.65;0.35;;;;;;;6.51;100.00;102134.78;10457508;28;20107;-81
2022/12/27 18:48:16;;;;;;;0.03;0.03;;;;;;;6.42;100.00;102128.22;10433660;28;20054;-81
2022/12/27 18:53:30;;;;;;;0.00;0.00;;;;;;;6.38;100.00;102123.69;10443421;28;20088;-81
2022/12/27 18:58:33;;;;;;;0.10;0.10;;;;;;;6.30;100.00;102121.53;10432262;28;20084;-81
2022/12/27 19:03:35;;;;;;;0.00;0.00;;;;;;;6.19;100.00;102112.31;10439785;28;20034;-81
2022/12/27 19:08:50;;;;;;;0.00;0.00;;;;;;;6.24;100.00;102112.59;10430304;28;20099;-81
2022/12/27 19:13:56;;;;;;;0.00;0.00;;;;;;;6.15;100.00;102101.00;10439568;28;20049;-82
2022/12/27 19:19:07;;;;;;;1.98;1.35;;;;;;;6.15;100.00;102095.88;10445050;28;20036;-82
2022/12/27 19:24:26;;;;;;;0.20;0.20;;;;;;;5.99;100.00;102078.69;10433511;28;20092;-82
2022/12/27 19:29:32;;;;;;;2.08;0.70;;;;;;;6.14;100.00;102077.88;10426683;28;20041;-82
2022/12/27 19:34:46;;;;;;;0.00;0.00;;;;;;;6.00;100.00;102065.06;10436864;28;20053;-82
2022/12/27 19:39:48;;;;;;;0.17;0.15;;;;;;;6.07;100.00;102068.03;10448976;28;20087;-81
2022/12/27 19:44:50;;;;;;;0.00;0.00;;;;;;;5.95;100.00;102050.22;10443800;28;20049;-82
2022/12/27 19:49:52;;;;;;;0.35;0.32;;;;;;;5.80;100.00;102055.22;10427925;28;20048;-82
2022/12/27 19:55:01;;;;;;;0.15;0.10;;;;;;;5.80;100.00;102047.53;10444815;28;20060;-81
2022/12/27 20:00:09;;;;;;;1.45;1.35;;;;;;;5.63;100.00;102047.34;10438815;28;20041;-82
2022/12/27 20:05:15;;;;;;;0.32;0.30;;;;;;;5.65;100.00;102040.66;10437825;28;20048;-82
2022/12/27 20:10:16;;;;;;;0.13;0.13;;;;;;;5.56;100.00;102034.94;10442601;28;20040;-82
2022/12/27 20:15:18;;;;;;;0.13;0.10;;;;;;;5.59;100.00;102040.28;10436943;28;20045;-81
2022/12/27 20:20:21;;;;;;;0.45;0.45;;;;;;;5.52;100.00;102027.88;10427259;28;20508;-81
2022/12/27 20:25:24;;;;;;;0.43;0.25;;;;;;;5.52;100.00;102023.63;10420532;28;20041;-81
2022/12/27 20:30:29;;;;;;;0.10;0.10;;;;;;;5.48;100.00;102020.78;10439910;28;20259;-81
2022/12/27 20:35:34;;;;;;;0.00;0.00;;;;;;;5.36;100.00;102016.66;10442352;28;20477;-82
2022/12/27 20:40:36;;;;;;;0.00;0.00;;;;;;;5.37;100.00;102003.09;10431910;28;20041;-81
2022/12/27 20:45:38;;;;;;;0.40;0.40;;;;;;;5.38;100.00;101998.88;10422914;28;20460;-80
2022/12/27 20:50:44;;;;;;;0.63;0.57;;;;;;;5.41;100.00;101999.06;10439284;28;20037;-81
2022/12/27 20:55:56;;;;;;;0.10;0.10;;;;;;;5.34;100.00;101992.66;10452050;28;20446;-81
2022/12/27 21:01:08;;;;;;;0.40;0.30;;;;;;;5.43;100.00;101991.50;10439396;28;20505;-81
2022/12/27 21:06:22;;;;;;;0.35;0.25;;;;;;;5.42;100.00;101976.94;10449539;28;20584;-81
2022/12/27 21:11:29;;;;;;;0.30;0.30;;;;;;;5.52;100.00;101971.66;10443737;28;20084;-81
2022/12/27 21:16:33;;;;;;;0.55;0.47;;;;;;;5.42;100.00;101966.72;10430953;28;20049;-80
2022/12/27 21:21:37;;;;;;;0.15;0.15;;;;;;;5.27;100.00;101967.50;10443679;28;20068;-82
2022/12/27 21:26:39;;;;;;;4.38;0.17;;;;;;;5.30;100.00;101959.16;10452571;28;20052;-82
2022/12/27 21:31:44;;;;;;;0.55;0.17;;;;;;;5.33;100.00;101955.13;10435088;28;20053;-81
2022/12/27 21:36:52;;;;;;;0.35;0.32;;;;;;;5.45;100.00;101946.50;10444328;28;20037;-86
2022/12/27 21:41:54;;;;;;;0.38;0.32;;;;;;;5.29;100.00;101942.94;10449355;28;20102;-87
2022/12/27 21:46:56;;;;;;;0.08;0.08;;;;;;;5.34;100.00;101939.00;10452685;28;20041;-88
2022/12/27 21:51:57;;;;;;;0.25;0.25;;;;;;;5.33;100.00;101939.78;10457540;28;20040;-88
2022/12/27 21:56:59;;;;;;;0.10;0.10;;;;;;;5.27;100.00;101924.06;10439682;28;20493;-87
2022/12/27 22:02:01;;;;;;;0.00;0.00;;;;;;;5.40;100.00;101915.53;10458030;28;20076;-87
2022/12/27 22:07:03;;;;;;;0.98;0.52;;;;;;;5.21;100.00;101898.13;10450217;28;20048;-88
2022/12/27 22:12:05;;;;;;;0.10;0.10;;;;;;;5.26;100.00;101890.75;10456707;28;20376;-87
2022/12/27 22:17:06;;;;;;;0.30;0.25;;;;;;;5.23;100.00;101876.13;10457521;28;20391;-88
2022/12/27 22:22:23;;;;;;;0.80;0.75;;;;;;;5.18;100.00;101880.94;10455977;28;20064;-87
2022/12/27 22:27:25;;;;;;;0.22;0.22;;;;;;;5.34;100.00;101870.00;10439876;28;20051;-87
2022/12/27 22:32:26;;;;;;;0.00;0.00;;;;;;;5.38;100.00;101868.53;10456052;28;20045;-88
2022/12/27 22:37:28;;;;;;;0.00;0.00;;;;;;;5.42;100.00;101851.72;10454849;28;20044;-87
2022/12/27 22:42:29;;;;;;;0.10;0.10;;;;;;;5.29;100.00;101843.28;10455198;28;20053;-87
2022/12/27 22:47:31;;;;;;;0.20;0.20;;;;;;;5.47;100.00;101846.09;10456516;28;20048;-87
2022/12/27 22:52:33;;;;;;;0.00;0.00;;;;;;;5.27;100.00;101832.09;10456239;28;20099;-87
2022/12/27 22:57:34;;;;;;;0.00;0.00;;;;;;;5.49;100.00;101828.31;10454131;28;20049;-87
2022/12/27 23:02:36;;;;;;;1.48;0.10;;;;;;;5.54;100.00;101821.81;10455481;28;20037;-87
2022/12/27 23:07:38;;;;;;;0.90;0.22;;;;;;;5.48;100.00;101814.66;10455589;28;20052;-87
2022/12/27 23:12:59;;;;;;;1.13;0.73;;;;;;;5.52;100.00;101800.38;10444023;28;20124;-88
2022/12/27 23:18:01;;;;;;;0.00;0.00;;;;;;;5.63;100.00;101801.91;10455493;28;20087;-87
2022/12/27 23:23:03;;;;;;;0.17;0.13;;;;;;;5.62;100.00;101789.03;10454496;28;20045;-88
2022/12/27 23:28:04;;;;;;;0.03;0.03;;;;;;;5.62;100.00;101766.03;10455084;28;20053;-88
2022/12/27 23:33:06;;;;;;;0.00;0.00;;;;;;;5.59;100.00;101758.16;10454464;28;20095;-88
2022/12/27 23:38:08;;;;;;;0.55;0.38;;;;;;;5.80;100.00;101759.47;10454526;28;20045;-88
2022/12/27 23:43:09;;;;;;;0.00;0.00;;;;;;;5.66;100.00;101753.53;10454980;28;20080;-88
2022/12/27 23:48:31;;;;;;;0.52;0.52;;;;;;;5.74;100.00;101745.44;10436096;28;20076;-87
2022/12/27 23:53:32;;;;;;;1.58;0.25;;;;;;;5.68;100.00;101766.38;10426552;28;20053;-88
2022/12/27 23:58:35;;;;;;;1.00;0.93;;;;;;;5.53;100.00;101776.59;10424297;28;20068;-88
